sensor_id;sensor_type;location;lat;lon;timestamp;P1;durP1;ratioP1;P2;durP2;ratioP2
66093;SDS011;52876;49.394;10.892;2022-11-11T00:01:32;151.20;;;47.13;;
66093;SDS011;52876;49.394;10.892;2022-11-11T00:03:58;71.03;;;25.93;;
66093;SDS011;52876;49.394;10.892;2022-11-11T00:06:27;129.10;;;38.77;;
66093;SDS011;52876;49.394;10.892;2022-11-11T00:08:53;86.17;;;28.50;;
66093;SDS011;52876;49.394;10.892;2022-11-11T00:11:21;79.70;;;25.87;;
66093;SDS011;52876;49.394;10.892;2022-11-11T00:13:47;100.77;;;32.80;;
66093;SDS011;52876;49.394;10.892;2022-11-11T00:16:13;103.80;;;30.80;;
66093;SDS011;52876;49.394;10.892;2022-11-11T00:18:40;121.33;;;36.83;;
66093;SDS011;52876;49.394;10.892;2022-11-11T00:21:07;71.23;;;24.10;;
66093;SDS011;52876;49.394;10.892;2022-11-11T00:23:36;140.53;;;40.97;;
66093;SDS011;52876;49.394;10.892;2022-11-11T00:26:02;95.13;;;29.27;;
66093;SDS011;52876;49.394;10.892;2022-11-11T00:28:28;71.13;;;24.40;;
66093;SDS011;52876;49.394;10.892;2022-11-11T00:31:02;88.63;;;27.27;;
66093;SDS011;52876;49.394;10.892;2022-11-11T00:33:29;122.23;;;33.17;;
66093;SDS011;52876;49.394;10.892;2022-11-11T00:35:55;57.87;;;20.03;;
66093;SDS011;52876;49.394;10.892;2022-11-11T00:38:21;81.77;;;25.17;;
66093;SDS011;52876;49.394;10.892;2022-11-11T00:40:48;72.00;;;23.40;;
66093;SDS011;52876;49.394;10.892;2022-11-11T00:43:14;90.70;;;29.20;;
66093;SDS011;52876;49.394;10.892;2022-11-11T00:45:40;111.00;;;32.13;;
66093;SDS011;52876;49.394;10.892;2022-11-11T00:48:07;76.37;;;24.77;;
66093;SDS011;52876;49.394;10.892;2022-11-11T00:50:35;106.60;;;30.47;;
66093;SDS011;52876;49.394;10.892;2022-11-11T00:53:02;56.23;;;19.20;;
66093;SDS011;52876;49.394;10.892;2022-11-11T00:55:29;77.53;;;23.37;;
66093;SDS011;52876;49.394;10.892;2022-11-11T00:57:57;54.97;;;18.63;;
66093;SDS011;52876;49.394;10.892;2022-11-11T01:00:24;86.10;;;26.57;;
66093;SDS011;52876;49.394;10.892;2022-11-11T01:02:50;69.93;;;22.23;;
66093;SDS011;52876;49.394;10.892;2022-11-11T01:05:18;62.17;;;21.13;;
66093;SDS011;52876;49.394;10.892;2022-11-11T01:07:47;93.87;;;29.53;;
66093;SDS011;52876;49.394;10.892;2022-11-11T01:10:13;58.03;;;21.40;;
66093;SDS011;52876;49.394;10.892;2022-11-11T01:12:41;63.37;;;20.03;;
66093;SDS011;52876;49.394;10.892;2022-11-11T01:15:08;65.10;;;22.50;;
66093;SDS011;52876;49.394;10.892;2022-11-11T01:17:36;95.97;;;29.60;;
66093;SDS011;52876;49.394;10.892;2022-11-11T01:20:02;50.23;;;20.20;;
66093;SDS011;52876;49.394;10.892;2022-11-11T01:22:30;62.90;;;22.77;;
66093;SDS011;52876;49.394;10.892;2022-11-11T01:24:56;40.53;;;17.70;;
66093;SDS011;52876;49.394;10.892;2022-11-11T01:27:23;38.73;;;15.73;;
66093;SDS011;52876;49.394;10.892;2022-11-11T01:29:49;59.87;;;23.17;;
66093;SDS011;52876;49.394;10.892;2022-11-11T01:32:17;35.83;;;15.43;;
66093;SDS011;52876;49.394;10.892;2022-11-11T01:34:43;64.47;;;24.47;;
66093;SDS011;52876;49.394;10.892;2022-11-11T01:37:09;37.97;;;17.87;;
66093;SDS011;52876;49.394;10.892;2022-11-11T01:39:35;53.37;;;21.53;;
66093;SDS011;52876;49.394;10.892;2022-11-11T01:42:02;30.97;;;14.83;;
66093;SDS011;52876;49.394;10.892;2022-11-11T01:44:41;34.80;;;15.43;;
66093;SDS011;52876;49.394;10.892;2022-11-11T01:47:08;40.60;;;17.93;;
66093;SDS011;52876;49.394;10.892;2022-11-11T01:49:37;54.37;;;19.53;;
66093;SDS011;52876;49.394;10.892;2022-11-11T01:52:05;30.90;;;14.70;;
66093;SDS011;52876;49.394;10.892;2022-11-11T01:54:33;77.50;;;24.70;;
66093;SDS011;52876;49.394;10.892;2022-11-11T01:57:01;32.90;;;16.20;;
66093;SDS011;52876;49.394;10.892;2022-11-11T01:59:28;30.13;;;14.70;;
66093;SDS011;52876;49.394;10.892;2022-11-11T02:01:56;21.33;;;11.53;;
66093;SDS011;52876;49.394;10.892;2022-11-11T02:04:22;25.13;;;14.30;;
66093;SDS011;52876;49.394;10.892;2022-11-11T02:06:51;29.23;;;13.53;;
66093;SDS011;52876;49.394;10.892;2022-11-11T02:09:17;28.43;;;14.40;;
66093;SDS011;52876;49.394;10.892;2022-11-11T02:11:45;62.23;;;22.60;;
66093;SDS011;52876;49.394;10.892;2022-11-11T02:14:11;31.00;;;15.23;;
66093;SDS011;52876;49.394;10.892;2022-11-11T02:16:39;70.90;;;25.63;;
66093;SDS011;52876;49.394;10.892;2022-11-11T02:19:05;28.73;;;13.30;;
66093;SDS011;52876;49.394;10.892;2022-11-11T02:21:34;70.80;;;24.20;;
66093;SDS011;52876;49.394;10.892;2022-11-11T02:24:03;34.40;;;15.20;;
66093;SDS011;52876;49.394;10.892;2022-11-11T02:26:32;64.37;;;22.70;;
66093;SDS011;52876;49.394;10.892;2022-11-11T02:29:00;26.37;;;12.70;;
66093;SDS011;52876;49.394;10.892;2022-11-11T02:31:30;51.33;;;19.23;;
66093;SDS011;52876;49.394;10.892;2022-11-11T02:33:56;28.57;;;13.20;;
66093;SDS011;52876;49.394;10.892;2022-11-11T02:36:24;31.93;;;14.57;;
66093;SDS011;52876;49.394;10.892;2022-11-11T02:38:50;27.43;;;12.90;;
66093;SDS011;52876;49.394;10.892;2022-11-11T02:41:19;26.10;;;13.03;;
66093;SDS011;52876;49.394;10.892;2022-11-11T02:43:45;42.30;;;18.30;;
66093;SDS011;52876;49.394;10.892;2022-11-11T02:46:11;26.97;;;12.53;;
66093;SDS011;52876;49.394;10.892;2022-11-11T02:48:37;59.97;;;21.67;;
66093;SDS011;52876;49.394;10.892;2022-11-11T02:51:04;27.43;;;12.43;;
66093;SDS011;52876;49.394;10.892;2022-11-11T02:53:30;33.33;;;15.67;;
66093;SDS011;52876;49.394;10.892;2022-11-11T02:55:56;31.90;;;14.73;;
66093;SDS011;52876;49.394;10.892;2022-11-11T02:58:23;26.30;;;12.50;;
66093;SDS011;52876;49.394;10.892;2022-11-11T03:00:50;37.43;;;16.80;;
66093;SDS011;52876;49.394;10.892;2022-11-11T03:03:16;32.53;;;16.30;;
66093;SDS011;52876;49.394;10.892;2022-11-11T03:05:44;40.07;;;16.90;;
66093;SDS011;52876;49.394;10.892;2022-11-11T03:08:10;24.77;;;13.00;;
66093;SDS011;52876;49.394;10.892;2022-11-11T03:10:37;49.67;;;17.70;;
66093;SDS011;52876;49.394;10.892;2022-11-11T03:13:03;40.70;;;17.63;;
66093;SDS011;52876;49.394;10.892;2022-11-11T03:15:32;34.70;;;14.77;;
66093;SDS011;52876;49.394;10.892;2022-11-11T03:17:58;40.50;;;15.40;;
66093;SDS011;52876;49.394;10.892;2022-11-11T03:20:25;37.30;;;18.27;;
66093;SDS011;52876;49.394;10.892;2022-11-11T03:23:00;29.47;;;15.50;;
66093;SDS011;52876;49.394;10.892;2022-11-11T03:25:28;40.73;;;17.80;;
66093;SDS011;52876;49.394;10.892;2022-11-11T03:27:54;45.20;;;20.30;;
66093;SDS011;52876;49.394;10.892;2022-11-11T03:30:20;30.93;;;16.03;;
66093;SDS011;52876;49.394;10.892;2022-11-11T03:32:49;24.07;;;13.00;;
66093;SDS011;52876;49.394;10.892;2022-11-11T03:35:15;22.23;;;12.63;;
66093;SDS011;52876;49.394;10.892;2022-11-11T03:37:43;54.07;;;22.63;;
66093;SDS011;52876;49.394;10.892;2022-11-11T03:40:09;37.23;;;17.87;;
66093;SDS011;52876;49.394;10.892;2022-11-11T03:42:37;64.73;;;24.33;;
66093;SDS011;52876;49.394;10.892;2022-11-11T03:45:03;26.73;;;14.90;;
66093;SDS011;52876;49.394;10.892;2022-11-11T03:47:30;51.07;;;20.07;;
66093;SDS011;52876;49.394;10.892;2022-11-11T03:49:58;39.83;;;18.23;;
66093;SDS011;52876;49.394;10.892;2022-11-11T03:52:25;38.00;;;19.03;;
66093;SDS011;52876;49.394;10.892;2022-11-11T03:54:51;36.13;;;16.53;;
66093;SDS011;52876;49.394;10.892;2022-11-11T03:57:19;38.03;;;17.67;;
66093;SDS011;52876;49.394;10.892;2022-11-11T03:59:45;44.93;;;19.60;;
66093;SDS011;52876;49.394;10.892;2022-11-11T04:02:11;39.07;;;20.80;;
66093;SDS011;52876;49.394;10.892;2022-11-11T04:04:37;45.37;;;21.60;;
66093;SDS011;52876;49.394;10.892;2022-11-11T04:07:05;28.40;;;16.20;;
66093;SDS011;52876;49.394;10.892;2022-11-11T04:09:32;39.33;;;19.43;;
66093;SDS011;52876;49.394;10.892;2022-11-11T04:11:58;26.30;;;14.37;;
66093;SDS011;52876;49.394;10.892;2022-11-11T04:14:24;22.83;;;14.40;;
66093;SDS011;52876;49.394;10.892;2022-11-11T04:16:52;27.57;;;15.53;;
66093;SDS011;52876;49.394;10.892;2022-11-11T04:19:18;34.47;;;18.23;;
66093;SDS011;52876;49.394;10.892;2022-11-11T04:21:45;40.30;;;19.00;;
66093;SDS011;52876;49.394;10.892;2022-11-11T04:24:13;38.17;;;17.40;;
66093;SDS011;52876;49.394;10.892;2022-11-11T04:26:41;35.73;;;17.40;;
66093;SDS011;52876;49.394;10.892;2022-11-11T04:29:07;26.53;;;14.70;;
66093;SDS011;52876;49.394;10.892;2022-11-11T04:31:35;36.40;;;18.80;;
66093;SDS011;52876;49.394;10.892;2022-11-11T04:34:01;43.97;;;26.97;;
66093;SDS011;52876;49.394;10.892;2022-11-11T04:36:27;49.17;;;24.50;;
66093;SDS011;52876;49.394;10.892;2022-11-11T04:38:53;34.90;;;24.63;;
66093;SDS011;52876;49.394;10.892;2022-11-11T04:41:22;29.63;;;22.83;;
66093;SDS011;52876;49.394;10.892;2022-11-11T04:43:48;27.03;;;18.43;;
66093;SDS011;52876;49.394;10.892;2022-11-11T04:46:16;31.93;;;19.33;;
66093;SDS011;52876;49.394;10.892;2022-11-11T04:48:42;56.80;;;23.47;;
66093;SDS011;52876;49.394;10.892;2022-11-11T04:51:08;29.53;;;20.30;;
66093;SDS011;52876;49.394;10.892;2022-11-11T04:53:34;46.07;;;25.20;;
66093;SDS011;52876;49.394;10.892;2022-11-11T04:56:00;40.67;;;26.27;;
66093;SDS011;52876;49.394;10.892;2022-11-11T04:58:29;22.50;;;15.33;;
66093;SDS011;52876;49.394;10.892;2022-11-11T05:00:57;22.23;;;13.50;;
66093;SDS011;52876;49.394;10.892;2022-11-11T05:03:23;30.70;;;17.20;;
66093;SDS011;52876;49.394;10.892;2022-11-11T05:05:49;33.57;;;16.27;;
66093;SDS011;52876;49.394;10.892;2022-11-11T05:08:16;35.37;;;16.90;;
66093;SDS011;52876;49.394;10.892;2022-11-11T05:10:42;45.17;;;20.73;;
66093;SDS011;52876;49.394;10.892;2022-11-11T05:13:08;25.27;;;16.80;;
66093;SDS011;52876;49.394;10.892;2022-11-11T05:15:37;31.83;;;18.30;;
66093;SDS011;52876;49.394;10.892;2022-11-11T05:18:03;20.80;;;14.50;;
66093;SDS011;52876;49.394;10.892;2022-11-11T05:20:31;30.93;;;18.23;;
66093;SDS011;52876;49.394;10.892;2022-11-11T05:22:57;23.50;;;16.93;;
66093;SDS011;52876;49.394;10.892;2022-11-11T05:25:24;21.40;;;14.17;;
66093;SDS011;52876;49.394;10.892;2022-11-11T05:27:52;24.97;;;15.50;;
66093;SDS011;52876;49.394;10.892;2022-11-11T05:30:18;24.07;;;15.93;;
66093;SDS011;52876;49.394;10.892;2022-11-11T05:32:47;20.40;;;13.80;;
66093;SDS011;52876;49.394;10.892;2022-11-11T05:35:14;52.50;;;37.27;;
66093;SDS011;52876;49.394;10.892;2022-11-11T05:37:42;42.33;;;22.13;;
66093;SDS011;52876;49.394;10.892;2022-11-11T05:40:10;26.03;;;16.20;;
66093;SDS011;52876;49.394;10.892;2022-11-11T05:42:41;45.47;;;22.40;;
66093;SDS011;52876;49.394;10.892;2022-11-11T05:45:07;30.17;;;18.63;;
66093;SDS011;52876;49.394;10.892;2022-11-11T05:47:35;25.87;;;17.43;;
66093;SDS011;52876;49.394;10.892;2022-11-11T05:50:03;29.97;;;18.80;;
66093;SDS011;52876;49.394;10.892;2022-11-11T05:52:31;48.87;;;21.40;;
66093;SDS011;52876;49.394;10.892;2022-11-11T05:54:57;28.37;;;15.20;;
66093;SDS011;52876;49.394;10.892;2022-11-11T05:57:24;24.83;;;15.67;;
66093;SDS011;52876;49.394;10.892;2022-11-11T05:59:50;24.67;;;15.57;;
66093;SDS011;52876;49.394;10.892;2022-11-11T06:02:18;32.63;;;17.47;;
66093;SDS011;52876;49.394;10.892;2022-11-11T06:04:44;49.63;;;23.33;;
66093;SDS011;52876;49.394;10.892;2022-11-11T06:07:11;36.17;;;17.47;;
66093;SDS011;52876;49.394;10.892;2022-11-11T06:09:37;68.93;;;25.27;;
66093;SDS011;52876;49.394;10.892;2022-11-11T06:12:03;28.43;;;16.33;;
66093;SDS011;52876;49.394;10.892;2022-11-11T06:14:29;40.00;;;19.87;;
66093;SDS011;52876;49.394;10.892;2022-11-11T06:16:55;39.00;;;19.50;;
66093;SDS011;52876;49.394;10.892;2022-11-11T06:19:21;41.53;;;22.00;;
66093;SDS011;52876;49.394;10.892;2022-11-11T06:21:47;55.77;;;27.13;;
66093;SDS011;52876;49.394;10.892;2022-11-11T06:24:15;52.37;;;22.13;;
66093;SDS011;52876;49.394;10.892;2022-11-11T06:26:42;69.43;;;29.23;;
66093;SDS011;52876;49.394;10.892;2022-11-11T06:29:08;37.67;;;22.97;;
66093;SDS011;52876;49.394;10.892;2022-11-11T06:31:36;66.30;;;27.00;;
66093;SDS011;52876;49.394;10.892;2022-11-11T06:34:02;37.17;;;20.73;;
66093;SDS011;52876;49.394;10.892;2022-11-11T06:36:29;47.97;;;24.97;;
66093;SDS011;52876;49.394;10.892;2022-11-11T06:38:55;41.23;;;26.00;;
66093;SDS011;52876;49.394;10.892;2022-11-11T06:41:24;40.50;;;22.53;;
66093;SDS011;52876;49.394;10.892;2022-11-11T06:43:50;39.47;;;21.30;;
66093;SDS011;52876;49.394;10.892;2022-11-11T06:46:19;35.57;;;19.40;;
66093;SDS011;52876;49.394;10.892;2022-11-11T06:48:46;53.13;;;27.30;;
66093;SDS011;52876;49.394;10.892;2022-11-11T06:51:12;43.13;;;23.40;;
66093;SDS011;52876;49.394;10.892;2022-11-11T06:53:39;67.60;;;28.17;;
66093;SDS011;52876;49.394;10.892;2022-11-11T06:56:05;42.10;;;21.00;;
66093;SDS011;52876;49.394;10.892;2022-11-11T06:58:33;46.27;;;23.63;;
66093;SDS011;52876;49.394;10.892;2022-11-11T07:01:02;53.70;;;26.00;;
66093;SDS011;52876;49.394;10.892;2022-11-11T07:03:28;55.13;;;25.67;;
66093;SDS011;52876;49.394;10.892;2022-11-11T07:05:54;38.43;;;21.10;;
66093;SDS011;52876;49.394;10.892;2022-11-11T07:08:20;38.40;;;19.70;;
66093;SDS011;52876;49.394;10.892;2022-11-11T07:10:48;36.30;;;18.70;;
66093;SDS011;52876;49.394;10.892;2022-11-11T07:13:14;57.10;;;27.27;;
66093;SDS011;52876;49.394;10.892;2022-11-11T07:15:42;75.10;;;36.20;;
66093;SDS011;52876;49.394;10.892;2022-11-11T07:18:08;55.87;;;28.43;;
66093;SDS011;52876;49.394;10.892;2022-11-11T07:20:36;76.53;;;31.03;;
66093;SDS011;52876;49.394;10.892;2022-11-11T07:23:02;34.87;;;20.00;;
66093;SDS011;52876;49.394;10.892;2022-11-11T07:25:29;54.57;;;23.67;;
66093;SDS011;52876;49.394;10.892;2022-11-11T07:27:56;33.43;;;18.63;;
66093;SDS011;52876;49.394;10.892;2022-11-11T07:30:23;23.13;;;12.90;;
66093;SDS011;52876;49.394;10.892;2022-11-11T07:32:51;55.30;;;21.90;;
66093;SDS011;52876;49.394;10.892;2022-11-11T07:35:17;33.10;;;18.40;;
66093;SDS011;52876;49.394;10.892;2022-11-11T07:37:45;36.10;;;19.97;;
66093;SDS011;52876;49.394;10.892;2022-11-11T07:40:12;26.30;;;16.37;;
66093;SDS011;52876;49.394;10.892;2022-11-11T07:42:40;31.60;;;19.23;;
66093;SDS011;52876;49.394;10.892;2022-11-11T07:45:07;22.77;;;16.33;;
66093;SDS011;52876;49.394;10.892;2022-11-11T07:47:35;30.80;;;17.80;;
66093;SDS011;52876;49.394;10.892;2022-11-11T07:50:03;15.80;;;12.03;;
66093;SDS011;52876;49.394;10.892;2022-11-11T07:52:32;19.70;;;15.30;;
66093;SDS011;52876;49.394;10.892;2022-11-11T07:54:59;61.03;;;27.20;;
66093;SDS011;52876;49.394;10.892;2022-11-11T07:57:25;75.23;;;30.53;;
66093;SDS011;52876;49.394;10.892;2022-11-11T07:59:51;50.47;;;26.23;;
66093;SDS011;52876;49.394;10.892;2022-11-11T08:02:18;45.97;;;20.60;;
66093;SDS011;52876;49.394;10.892;2022-11-11T08:04:44;22.67;;;14.20;;
66093;SDS011;52876;49.394;10.892;2022-11-11T08:07:13;28.17;;;16.27;;
66093;SDS011;52876;49.394;10.892;2022-11-11T08:09:39;75.77;;;26.23;;
66093;SDS011;52876;49.394;10.892;2022-11-11T08:12:05;50.37;;;30.10;;
66093;SDS011;52876;49.394;10.892;2022-11-11T08:14:31;67.80;;;33.33;;
66093;SDS011;52876;49.394;10.892;2022-11-11T08:16:57;35.03;;;21.93;;
66093;SDS011;52876;49.394;10.892;2022-11-11T08:19:23;36.70;;;18.37;;
66093;SDS011;52876;49.394;10.892;2022-11-11T08:21:50;49.93;;;22.00;;
66093;SDS011;52876;49.394;10.892;2022-11-11T08:24:17;48.67;;;20.43;;
66093;SDS011;52876;49.394;10.892;2022-11-11T08:26:45;63.50;;;23.67;;
66093;SDS011;52876;49.394;10.892;2022-11-11T08:29:11;56.80;;;23.37;;
66093;SDS011;52876;49.394;10.892;2022-11-11T08:31:39;81.67;;;28.27;;
66093;SDS011;52876;49.394;10.892;2022-11-11T08:34:05;42.53;;;19.13;;
66093;SDS011;52876;49.394;10.892;2022-11-11T08:36:32;48.47;;;18.97;;
66093;SDS011;52876;49.394;10.892;2022-11-11T08:38:58;64.67;;;22.47;;
66093;SDS011;52876;49.394;10.892;2022-11-11T08:41:26;53.10;;;19.33;;
66093;SDS011;52876;49.394;10.892;2022-11-11T08:43:52;36.83;;;15.63;;
66093;SDS011;52876;49.394;10.892;2022-11-11T08:46:20;34.50;;;14.57;;
66093;SDS011;52876;49.394;10.892;2022-11-11T08:48:46;82.47;;;28.77;;
66093;SDS011;52876;49.394;10.892;2022-11-11T08:51:12;32.67;;;18.27;;
66093;SDS011;52876;49.394;10.892;2022-11-11T08:53:38;50.47;;;21.30;;
66093;SDS011;52876;49.394;10.892;2022-11-11T08:56:04;37.27;;;18.60;;
66093;SDS011;52876;49.394;10.892;2022-11-11T08:58:32;56.07;;;21.27;;
66093;SDS011;52876;49.394;10.892;2022-11-11T09:00:58;45.10;;;19.53;;
66093;SDS011;52876;49.394;10.892;2022-11-11T09:03:24;57.43;;;22.57;;
66093;SDS011;52876;49.394;10.892;2022-11-11T09:05:50;30.47;;;16.00;;
66093;SDS011;52876;49.394;10.892;2022-11-11T09:08:16;54.87;;;22.40;;
66093;SDS011;52876;49.394;10.892;2022-11-11T09:10:42;78.17;;;26.57;;
66093;SDS011;52876;49.394;10.892;2022-11-11T09:13:08;36.40;;;15.60;;
66093;SDS011;52876;49.394;10.892;2022-11-11T09:15:38;70.90;;;24.73;;
66093;SDS011;52876;49.394;10.892;2022-11-11T09:18:04;36.57;;;18.57;;
66093;SDS011;52876;49.394;10.892;2022-11-11T09:20:32;40.00;;;18.80;;
66093;SDS011;52876;49.394;10.892;2022-11-11T09:22:58;34.97;;;17.40;;
66093;SDS011;52876;49.394;10.892;2022-11-11T09:25:26;46.63;;;20.43;;
66093;SDS011;52876;49.394;10.892;2022-11-11T09:27:52;20.43;;;13.23;;
66093;SDS011;52876;49.394;10.892;2022-11-11T09:30:20;35.90;;;19.20;;
66093;SDS011;52876;49.394;10.892;2022-11-11T09:32:49;15.57;;;11.60;;
66093;SDS011;52876;49.394;10.892;2022-11-11T09:35:15;14.00;;;11.63;;
66093;SDS011;52876;49.394;10.892;2022-11-11T09:37:51;19.33;;;14.00;;
66093;SDS011;52876;49.394;10.892;2022-11-11T09:40:18;13.20;;;11.80;;
66093;SDS011;52876;49.394;10.892;2022-11-11T09:42:49;14.27;;;12.00;;
66093;SDS011;52876;49.394;10.892;2022-11-11T09:45:24;12.37;;;9.93;;
66093;SDS011;52876;49.394;10.892;2022-11-11T09:47:57;11.10;;;9.87;;
66093;SDS011;52876;49.394;10.892;2022-11-11T09:50:33;13.50;;;12.13;;
66093;SDS011;52876;49.394;10.892;2022-11-11T09:53:04;10.53;;;8.60;;
66093;SDS011;52876;49.394;10.892;2022-11-11T09:55:41;9.73;;;8.77;;
66093;SDS011;52876;49.394;10.892;2022-11-11T09:58:13;11.07;;;9.80;;
66093;SDS011;52876;49.394;10.892;2022-11-11T10:00:44;14.63;;;12.23;;
66093;SDS011;52876;49.394;10.892;2022-11-11T10:03:16;11.77;;;9.00;;
66093;SDS011;52876;49.394;10.892;2022-11-11T10:05:47;14.43;;;10.83;;
66093;SDS011;52876;49.394;10.892;2022-11-11T10:08:17;9.43;;;8.50;;
66093;SDS011;52876;49.394;10.892;2022-11-11T10:10:51;9.80;;;8.90;;
66093;SDS011;52876;49.394;10.892;2022-11-11T10:13:20;10.07;;;9.10;;
66093;SDS011;52876;49.394;10.892;2022-11-11T10:15:54;9.00;;;8.20;;
66093;SDS011;52876;49.394;10.892;2022-11-11T10:18:33;8.23;;;7.53;;
66093;SDS011;52876;49.394;10.892;2022-11-11T10:21:11;8.63;;;7.73;;
66093;SDS011;52876;49.394;10.892;2022-11-11T10:23:40;10.20;;;8.90;;
66093;SDS011;52876;49.394;10.892;2022-11-11T10:26:11;8.30;;;7.47;;
66093;SDS011;52876;49.394;10.892;2022-11-11T10:28:43;12.17;;;9.13;;
66093;SDS011;52876;49.394;10.892;2022-11-11T10:31:11;10.90;;;8.90;;
66093;SDS011;52876;49.394;10.892;2022-11-11T10:33:43;30.67;;;16.23;;
66093;SDS011;52876;49.394;10.892;2022-11-11T10:36:15;47.50;;;20.03;;
66093;SDS011;52876;49.394;10.892;2022-11-11T10:38:45;99.70;;;29.00;;
66093;SDS011;52876;49.394;10.892;2022-11-11T10:41:15;75.73;;;25.20;;
66093;SDS011;52876;49.394;10.892;2022-11-11T10:43:43;122.57;;;36.77;;
66093;SDS011;52876;49.394;10.892;2022-11-11T10:46:11;84.37;;;27.33;;
66093;SDS011;52876;49.394;10.892;2022-11-11T10:48:42;160.50;;;50.93;;
66093;SDS011;52876;49.394;10.892;2022-11-11T10:51:10;119.17;;;39.77;;
66093;SDS011;52876;49.394;10.892;2022-11-11T10:53:39;289.87;;;94.73;;
66093;SDS011;52876;49.394;10.892;2022-11-11T10:56:10;114.90;;;41.27;;
66093;SDS011;52876;49.394;10.892;2022-11-11T10:58:40;158.10;;;49.33;;
66093;SDS011;52876;49.394;10.892;2022-11-11T11:01:09;128.87;;;39.03;;
66093;SDS011;52876;49.394;10.892;2022-11-11T11:03:38;159.07;;;48.73;;
66093;SDS011;52876;49.394;10.892;2022-11-11T11:06:09;80.90;;;25.73;;
66093;SDS011;52876;49.394;10.892;2022-11-11T11:08:38;136.20;;;37.13;;
66093;SDS011;52876;49.394;10.892;2022-11-11T11:11:08;79.30;;;25.53;;
66093;SDS011;52876;49.394;10.892;2022-11-11T11:13:38;125.47;;;34.77;;
66093;SDS011;52876;49.394;10.892;2022-11-11T11:16:07;50.87;;;17.47;;
66093;SDS011;52876;49.394;10.892;2022-11-11T11:18:35;86.07;;;25.17;;
66093;SDS011;52876;49.394;10.892;2022-11-11T11:21:02;63.50;;;20.70;;
66093;SDS011;52876;49.394;10.892;2022-11-11T11:23:36;48.90;;;16.63;;
66093;SDS011;52876;49.394;10.892;2022-11-11T11:26:04;38.40;;;14.60;;
66093;SDS011;52876;49.394;10.892;2022-11-11T11:28:30;71.33;;;22.43;;
66093;SDS011;52876;49.394;10.892;2022-11-11T11:30:57;78.73;;;26.50;;
66093;SDS011;52876;49.394;10.892;2022-11-11T11:33:24;122.87;;;47.27;;
66093;SDS011;52876;49.394;10.892;2022-11-11T11:35:50;192.37;;;69.07;;
66093;SDS011;52876;49.394;10.892;2022-11-11T11:38:16;119.30;;;39.23;;
66093;SDS011;52876;49.394;10.892;2022-11-11T11:40:46;144.43;;;46.83;;
66093;SDS011;52876;49.394;10.892;2022-11-11T11:46:02;115.27;;;79.60;;
66093;SDS011;52876;49.394;10.892;2022-11-11T11:48:33;95.77;;;25.83;;
66093;SDS011;52876;49.394;10.892;2022-11-11T11:51:06;41.00;;;13.50;;
66093;SDS011;52876;49.394;10.892;2022-11-11T11:53:35;104.07;;;26.23;;
66093;SDS011;52876;49.394;10.892;2022-11-11T11:56:11;37.40;;;14.40;;
66093;SDS011;52876;49.394;10.892;2022-11-11T11:58:41;117.33;;;31.73;;
66093;SDS011;52876;49.394;10.892;2022-11-11T12:01:14;42.37;;;14.37;;
66093;SDS011;52876;49.394;10.892;2022-11-11T12:04:02;86.57;;;23.80;;
66093;SDS011;52876;49.394;10.892;2022-11-11T12:06:34;90.33;;;25.57;;
66093;SDS011;52876;49.394;10.892;2022-11-11T12:09:06;42.83;;;16.87;;
66093;SDS011;52876;49.394;10.892;2022-11-11T12:11:45;55.53;;;17.60;;
66093;SDS011;52876;49.394;10.892;2022-11-11T12:14:34;52.40;;;17.17;;
66093;SDS011;52876;49.394;10.892;2022-11-11T12:17:06;24.43;;;9.23;;
66093;SDS011;52876;49.394;10.892;2022-11-11T12:19:40;52.87;;;18.93;;
66093;SDS011;52876;49.394;10.892;2022-11-11T12:22:17;12.73;;;8.17;;
66093;SDS011;52876;49.394;10.892;2022-11-11T12:24:52;14.93;;;7.80;;
66093;SDS011;52876;49.394;10.892;2022-11-11T12:27:29;10.90;;;8.13;;
66093;SDS011;52876;49.394;10.892;2022-11-11T12:30:01;13.20;;;9.00;;
66093;SDS011;52876;49.394;10.892;2022-11-11T12:32:44;27.33;;;13.50;;
66093;SDS011;52876;49.394;10.892;2022-11-11T12:35:25;9.40;;;7.00;;
66093;SDS011;52876;49.394;10.892;2022-11-11T12:38:01;19.50;;;10.37;;
66093;SDS011;52876;49.394;10.892;2022-11-11T12:40:44;37.37;;;13.83;;
66093;SDS011;52876;49.394;10.892;2022-11-11T12:43:19;11.80;;;7.70;;
66093;SDS011;52876;49.394;10.892;2022-11-11T12:45:54;10.00;;;7.07;;
66093;SDS011;52876;49.394;10.892;2022-11-11T12:48:35;10.93;;;7.90;;
66093;SDS011;52876;49.394;10.892;2022-11-11T12:51:12;10.30;;;7.10;;
66093;SDS011;52876;49.394;10.892;2022-11-11T12:53:46;17.53;;;9.63;;
66093;SDS011;52876;49.394;10.892;2022-11-11T12:56:22;15.37;;;7.77;;
66093;SDS011;52876;49.394;10.892;2022-11-11T12:58:58;19.17;;;10.23;;
66093;SDS011;52876;49.394;10.892;2022-11-11T13:01:32;18.53;;;8.83;;
66093;SDS011;52876;49.394;10.892;2022-11-11T13:04:12;14.17;;;8.10;;
66093;SDS011;52876;49.394;10.892;2022-11-11T13:07:12;12.47;;;8.23;;
66093;SDS011;52876;49.394;10.892;2022-11-11T13:12:42;18.30;;;10.60;;
66093;SDS011;52876;49.394;10.892;2022-11-11T13:15:13;11.40;;;9.10;;
66093;SDS011;52876;49.394;10.892;2022-11-11T13:17:42;15.20;;;9.73;;
66093;SDS011;52876;49.394;10.892;2022-11-11T13:20:12;7.77;;;6.80;;
66093;SDS011;52876;49.394;10.892;2022-11-11T13:22:47;16.37;;;10.70;;
66093;SDS011;52876;49.394;10.892;2022-11-11T13:25:14;30.40;;;13.10;;
66093;SDS011;52876;49.394;10.892;2022-11-11T13:27:43;37.37;;;14.13;;
66093;SDS011;52876;49.394;10.892;2022-11-11T13:33:18;15.00;;;8.93;;
66093;SDS011;52876;49.394;10.892;2022-11-11T13:35:49;26.70;;;12.63;;
66093;SDS011;52876;49.394;10.892;2022-11-11T13:38:25;16.80;;;8.83;;
66093;SDS011;52876;49.394;10.892;2022-11-11T13:40:56;14.40;;;7.93;;
66093;SDS011;52876;49.394;10.892;2022-11-11T13:43:27;13.67;;;7.93;;
66093;SDS011;52876;49.394;10.892;2022-11-11T13:45:59;23.30;;;9.80;;
66093;SDS011;52876;49.394;10.892;2022-11-11T13:48:27;46.40;;;19.07;;
66093;SDS011;52876;49.394;10.892;2022-11-11T13:51:08;11.70;;;8.87;;
66093;SDS011;52876;49.394;10.892;2022-11-11T13:53:36;22.80;;;12.10;;
66093;SDS011;52876;49.394;10.892;2022-11-11T13:56:04;13.90;;;7.67;;
66093;SDS011;52876;49.394;10.892;2022-11-11T13:58:31;23.43;;;11.93;;
66093;SDS011;52876;49.394;10.892;2022-11-11T14:01:01;13.83;;;8.57;;
66093;SDS011;52876;49.394;10.892;2022-11-11T14:03:32;19.63;;;9.87;;
66093;SDS011;52876;49.394;10.892;2022-11-11T14:08:50;47.27;;;16.77;;
66093;SDS011;52876;49.394;10.892;2022-11-11T14:11:24;27.17;;;12.10;;
66093;SDS011;52876;49.394;10.892;2022-11-11T14:13:51;35.83;;;14.00;;
66093;SDS011;52876;49.394;10.892;2022-11-11T14:19:30;29.13;;;13.93;;
66093;SDS011;52876;49.394;10.892;2022-11-11T14:21:58;19.40;;;9.10;;
66093;SDS011;52876;49.394;10.892;2022-11-11T14:24:33;26.97;;;12.80;;
66093;SDS011;52876;49.394;10.892;2022-11-11T14:27:00;17.03;;;10.60;;
66093;SDS011;52876;49.394;10.892;2022-11-11T14:29:29;10.93;;;9.63;;
66093;SDS011;52876;49.394;10.892;2022-11-11T14:32:03;7.50;;;6.70;;
66093;SDS011;52876;49.394;10.892;2022-11-11T14:37:40;107.77;;;26.73;;